»·PEaware :: N412PA KSMX-KBFL

N412PA :: KSMX-KBFL

FLIGHT INFORMATION

Flight Status: Arrived
Operator: Privately registered:
United States
More flights under this callsign
Pilot: Joe C. (32404)
Aircraft: CESSNA 172 SKYHAWK
(C172)
More flights by this aircraft type
Origin: KSMX Santa Maria Pub/Capt Hancock
United States
Destination: KBFL Meadows
United States
More flights between these airports :: More routes between these airports
Route:
File this flight plan on PilotEdge
Remarks: KSMX direct KBFL CAT-5 rating
Altitude:
(Current/Filed)
7,500ft
Speed:
(Current/Filed)
108kts
Departed: 13-Jan-21 02:05 PM
Arrived: 13-Jan-21 02:57 PM
Distance/Time
Traveled:
76nm/0:51
Distance/Time
To Go:
Arrived

Flight Plot

Page will automatically refresh every two minutes.


Map Options




Map Legend


Flown Route
Filed Route
Departure Airport
Arrival Airport
Navaid (VOR, NDB)
Fix

Horizontal Profiles

Position Reports

Time Latitude Longitude Heading Altitude Ground
Speed
13-Jan-21 13:48 34.897033 -120.446324 46 255ft 0kts
13-Jan-21 13:49 34.897033 -120.446324 46 255ft 0kts
13-Jan-21 13:50 34.897033 -120.446324 46 255ft 0kts
13-Jan-21 13:51 34.897033 -120.446324 46 255ft 0kts
13-Jan-21 13:52 34.897033 -120.446324 46 255ft 0kts
13-Jan-21 13:53 34.897033 -120.446324 46 255ft 0kts
13-Jan-21 13:54 34.897033 -120.446324 46 255ft 0kts
13-Jan-21 13:55 34.897033 -120.446324 46 255ft 0kts
13-Jan-21 13:56 34.897033 -120.446324 46 255ft 0kts
13-Jan-21 13:57 34.897033 -120.446324 46 255ft 0kts
13-Jan-21 13:58 34.897033 -120.446325 46 255ft 0kts
13-Jan-21 13:58 34.897033 -120.446325 46 255ft 0kts
13-Jan-21 14:00 34.897033 -120.446325 46 255ft 0kts
13-Jan-21 14:01 34.896793 -120.447667 223 254ft 8kts
13-Jan-21 14:02 34.894884 -120.445877 135 260ft 10kts
13-Jan-21 14:02 34.893506 -120.445280 181 264ft 0kts
13-Jan-21 14:03 34.893506 -120.445280 181 264ft 0kts
13-Jan-21 14:05 34.898927 -120.453154 314 390ft 71kts
13-Jan-21 14:05 34.912294 -120.467048 319 925ft 82kts
13-Jan-21 14:06 34.927288 -120.452337 73 1674ft 87kts
13-Jan-21 14:07 34.934158 -120.424496 70 2384ft 84kts
13-Jan-21 14:08 34.941945 -120.397706 66 3072ft 81kts
13-Jan-21 14:09 34.949733 -120.372563 66 3763ft 75kts
13-Jan-21 14:10 34.953607 -120.346392 83 4241ft 85kts
13-Jan-21 14:11 34.958042 -120.320799 59 4759ft 77kts
13-Jan-21 14:12 34.952956 -120.296660 115 5318ft 89kts
13-Jan-21 14:13 34.961838 -120.272399 51 5754ft 81kts
13-Jan-21 14:14 34.977640 -120.254211 42 6228ft 69kts
13-Jan-21 14:15 34.988274 -120.230887 60 6481ft 91kts
13-Jan-21 14:16 34.999898 -120.200753 59 6714ft 105kts
13-Jan-21 14:17 35.011409 -120.170848 57 7075ft 97kts
13-Jan-21 14:18 35.022216 -120.142964 58 7463ft 94kts
13-Jan-21 14:19 35.033770 -120.112817 58 7487ft 101kts
13-Jan-21 14:20 35.045102 -120.083597 57 7462ft 92kts
13-Jan-21 14:21 35.056170 -120.054278 57 7462ft 93kts
13-Jan-21 14:22 35.068285 -120.022973 59 7535ft 108kts
13-Jan-21 14:23 35.080490 -119.991185 58 7487ft 98kts
13-Jan-21 14:24 35.092031 -119.961105 58 7505ft 97kts
13-Jan-21 14:25 35.103614 -119.930813 59 7521ft 96kts
13-Jan-21 14:26 35.115158 -119.900701 59 7548ft 100kts
13-Jan-21 14:27 35.127149 -119.869263 59 7543ft 102kts
13-Jan-21 14:28 35.139783 -119.836161 59 7544ft 109kts
13-Jan-21 14:29 35.152471 -119.802956 59 7539ft 106kts
13-Jan-21 14:30 35.164889 -119.770401 59 7545ft 105kts
13-Jan-21 14:31 35.177205 -119.738049 59 7547ft 104kts
13-Jan-21 14:32 35.189407 -119.706001 59 7549ft 103kts
13-Jan-21 14:33 35.201508 -119.674170 59 7567ft 105kts
13-Jan-21 14:34 35.214069 -119.641006 59 7566ft 109kts
13-Jan-21 14:35 35.226812 -119.607355 59 7551ft 108kts
13-Jan-21 14:36 35.239473 -119.573990 60 7555ft 108kts
13-Jan-21 14:37 35.252119 -119.540577 60 7530ft 110kts
13-Jan-21 14:38 35.264566 -119.507625 60 7437ft 100kts
13-Jan-21 14:39 35.276029 -119.477324 60 7441ft 97kts
13-Jan-21 14:40 35.287332 -119.447366 60 7450ft 98kts
13-Jan-21 14:41 35.298936 -119.416543 60 7442ft 99kts
13-Jan-21 14:42 35.310202 -119.386821 61 7102ft 104kts
13-Jan-21 14:43 35.322432 -119.354106 63 6390ft 103kts
13-Jan-21 14:44 35.334147 -119.322919 64 5680ft 95kts
13-Jan-21 14:45 35.344707 -119.294803 63 4977ft 88kts
13-Jan-21 14:46 35.354911 -119.267654 63 4281ft 88kts
13-Jan-21 14:47 35.365223 -119.240185 65 3585ft 89kts
13-Jan-21 14:48 35.375831 -119.211754 65 2893ft 101kts
13-Jan-21 14:49 35.388603 -119.179639 61 2438ft 101kts
13-Jan-21 14:50 35.401687 -119.152217 62 2242ft 91kts
13-Jan-21 14:51 35.412725 -119.123654 61 1991ft 94kts
13-Jan-21 14:52 35.424621 -119.093897 77 1674ft 97kts
13-Jan-21 14:53 35.419145 -119.065705 145 1593ft 85kts
13-Jan-21 14:54 35.408154 -119.043203 35 1105ft 86kts
13-Jan-21 14:55 35.424466 -119.044795 310 595ft 62kts
13-Jan-21 14:56 35.435200 -119.057798 316 495ft 13kts
13-Jan-21 14:57 35.436337 -119.057565 86 494ft 0kts
13-Jan-21 14:58 35.436351 -119.057398 87 494ft 8kts
13-Jan-21 14:59 35.432923 -119.052827 135 484ft 22kts
13-Jan-21 15:00 35.429284 -119.048439 136 483ft 13kts
13-Jan-21 15:01 35.430235 -119.047267 302 485ft 3kts
13-Jan-21 15:02 35.429952 -119.047429 133 485ft 0kts
13-Jan-21 15:03 35.429952 -119.047429 133 485ft 0kts
13-Jan-21 15:04 35.429952 -119.047429 133 485ft 0kts
13-Jan-21 15:05 35.429952 -119.047429 133 485ft 0kts
13-Jan-21 15:06 35.429952 -119.047429 133 485ft 0kts
13-Jan-21 15:07 35.429952 -119.047429 133 485ft 0kts
13-Jan-21 15:08 35.429952 -119.047429 133 485ft 0kts
13-Jan-21 15:09 35.429952 -119.047429 133 485ft 0kts
13-Jan-21 15:10 35.429952 -119.047429 133 485ft 0kts

Navigation Log

Ident Type
Flight plan parsing failed, navigation log unavailable